Time;durP1;ratioP1;P1;durP2;ratioP2;P2;SDS_P1;SDS_P2;PMS_P1;PMS_P2;Temp;Humidity;BMP_temperature;BMP_pressure;BME280_temperature;BME280_humidity;BME280_pressure;Samples;Min_cycle;Max_cycle;Signal;HPM_P1;HPM_P2
2021/12/18 00:01:44;;;;;;;14.40;5.50;;;2.40;99.90;;;;;;4414584;28;655625;-73
2021/12/18 00:04:32;;;;;;;17.80;5.77;;;2.30;99.90;;;;;;4396345;28;655295;-73
2021/12/18 00:07:19;;;;;;;19.60;5.77;;;2.40;99.90;;;;;;4414564;28;656404;-72
2021/12/18 00:10:09;;;;;;;20.50;5.80;;;2.30;99.90;;;;;;4392222;28;656209;-72
2021/12/18 00:12:57;;;;;;;18.13;5.90;;;2.30;99.90;;;;;;4392323;28;655458;-72
2021/12/18 00:15:44;;;;;;;20.90;5.50;;;2.30;99.90;;;;;;4398085;28;655580;-72
2021/12/18 00:18:34;;;;;;;14.87;5.47;;;2.20;99.90;;;;;;4387292;28;655648;-72
2021/12/18 00:21:21;;;;;;;14.23;5.70;;;2.20;99.90;;;;;;4396145;28;655748;-71
2021/12/18 00:24:09;;;;;;;19.83;5.83;;;2.10;99.90;;;;;;4414881;28;655497;-72
2021/12/18 00:26:59;;;;;;;21.60;5.17;;;2.00;99.90;;;;;;4395995;28;656113;-72
2021/12/18 00:29:46;;;;;;;17.07;5.67;;;2.00;99.90;;;;;;4396047;28;655784;-72
2021/12/18 00:32:34;;;;;;;13.33;5.03;;;1.90;99.90;;;;;;4414595;28;657294;-72
2021/12/18 00:35:21;;;;;;;22.40;5.50;;;1.90;99.90;;;;;;4392785;28;655406;-71
2021/12/18 00:38:09;;;;;;;17.60;6.27;;;1.90;99.90;;;;;;4414284;28;656511;-72
2021/12/18 00:41:12;;;;;;;16.37;5.63;;;1.90;99.90;;;;;;4394685;28;655441;-72
2021/12/18 00:44:06;;;;;;;16.93;5.20;;;1.90;99.90;;;;;;4395033;28;655099;-72
2021/12/18 00:46:53;;;;;;;18.73;6.37;;;1.80;99.90;;;;;;4375073;28;655784;-72
2021/12/18 00:49:41;;;;;;;19.43;5.93;;;1.80;99.90;;;;;;4378099;28;655951;-72
2021/12/18 00:52:28;;;;;;;26.13;5.70;;;1.80;99.90;;;;;;4400861;28;656244;-72
2021/12/18 00:55:16;;;;;;;16.90;5.60;;;1.80;99.90;;;;;;4378040;28;655534;-72
2021/12/18 00:58:09;;;;;;;16.97;5.57;;;1.80;99.90;;;;;;4396954;28;655849;-72
2021/12/18 01:01:10;;;;;;;13.43;5.00;;;1.90;99.90;;;;;;4381516;28;655013;-72
2021/12/18 01:04:01;;;;;;;22.03;6.10;;;1.80;99.90;;;;;;4373843;28;656527;-72
2021/12/18 01:06:50;;;;;;;19.40;6.22;;;1.80;99.90;;;;;;4373954;28;656650;-73
2021/12/18 01:09:56;;;;;;;21.80;6.87;;;1.80;99.90;;;;;;4374175;28;656730;-71
2021/12/18 01:12:48;;;;;;;19.33;6.40;;;1.80;99.90;;;;;;4374004;28;655628;-72
2021/12/18 01:15:42;;;;;;;17.87;6.23;;;1.70;99.90;;;;;;4360178;28;655474;-72
2021/12/18 01:24:44;;;;;;;18.27;6.63;;;1.80;99.90;;;;;;4395132;28;656002;-72
2021/12/18 01:27:32;;;;;;;23.08;7.53;;;1.70;99.90;;;;;;4394923;28;655323;-71
2021/12/18 01:30:22;;;;;;;18.63;6.80;;;1.70;99.90;;;;;;4411536;28;656414;-72
2021/12/18 01:33:10;;;;;;;22.80;6.93;;;1.70;99.90;;;;;;4412935;28;655851;-72
2021/12/18 01:36:01;;;;;;;18.43;7.17;;;1.70;99.90;;;;;;4379150;28;656471;-72
2021/12/18 01:38:50;;;;;;;19.23;6.77;;;1.70;99.90;;;;;;4379545;28;656226;-71
2021/12/18 01:42:08;;;;;;;24.73;7.03;;;1.70;99.90;;;;;;4377633;28;655960;-72
2021/12/18 01:44:59;;;;;;;14.73;5.10;;;1.60;99.90;;;;;;4391179;28;656001;-72
2021/12/18 01:54:03;;;;;;;19.60;7.53;;;1.50;99.90;;;;;;4390016;28;656382;-72
2021/12/18 01:56:52;;;;;;;30.87;7.47;;;1.50;99.90;;;;;;4372451;28;656124;-72
2021/12/18 01:59:42;;;;;;;21.33;7.17;;;1.60;99.90;;;;;;4412620;28;655843;-73
2021/12/18 02:02:31;;;;;;;21.70;6.73;;;1.60;99.90;;;;;;4394522;28;655342;-72
2021/12/18 02:05:20;;;;;;;25.92;8.10;;;1.60;99.90;;;;;;4390933;28;656638;-72
2021/12/18 02:08:10;;;;;;;22.27;6.60;;;1.70;99.90;;;;;;4388963;28;656420;-73
2021/12/18 02:11:11;;;;;;;19.90;7.60;;;1.70;99.90;;;;;;4390897;28;655982;-73
2021/12/18 02:14:09;;;;;;;18.63;6.77;;;1.70;99.90;;;;;;4390405;28;656737;-72
2021/12/18 02:20:21;;;;;;;20.07;6.20;;;1.70;99.90;;;;;;4371095;28;656628;-73
2021/12/18 02:23:09;;;;;;;18.97;7.10;;;1.70;99.90;;;;;;4389497;28;655931;-72
2021/12/18 02:25:56;;;;;;;16.63;6.97;;;1.70;99.90;;;;;;4395871;28;655292;-72
2021/12/18 02:28:47;;;;;;;17.93;7.07;;;1.70;99.90;;;;;;4416874;28;655448;-73
2021/12/18 02:31:35;;;;;;;16.55;6.25;;;1.70;99.90;;;;;;4392887;28;655985;-73
2021/12/18 02:34:27;;;;;;;21.67;7.43;;;1.70;99.90;;;;;;4393363;28;657230;-72
2021/12/18 02:37:23;;;;;;;32.43;7.57;;;1.70;99.90;;;;;;4394603;28;655638;-72
2021/12/18 02:43:22;;;;;;;25.60;7.53;;;1.50;99.90;;;;;;4370066;28;656820;-72
2021/12/18 02:46:17;;;;;;;24.03;8.60;;;1.50;99.90;;;;;;4393981;28;655849;-72
2021/12/18 02:49:08;;;;;;;22.07;8.20;;;1.50;99.90;;;;;;4393543;28;655792;-73
2021/12/18 02:51:57;;;;;;;22.53;7.33;;;1.50;99.90;;;;;;4364168;28;655732;-72
2021/12/18 02:54:48;;;;;;;24.13;8.83;;;1.60;99.90;;;;;;4398981;28;655437;-73
2021/12/18 02:57:37;;;;;;;17.93;7.37;;;1.50;99.90;;;;;;4365646;28;656131;-72
2021/12/18 03:00:26;;;;;;;23.80;7.87;;;1.60;99.90;;;;;;4399142;28;655749;-72
2021/12/18 03:03:15;;;;;;;24.80;9.53;;;1.50;99.90;;;;;;4376124;28;656624;-72
2021/12/18 03:06:17;;;;;;;21.10;8.43;;;1.60;99.90;;;;;;4380298;28;656750;-72
2021/12/18 03:09:26;;;;;;;28.07;8.27;;;1.60;99.90;;;;;;4382111;28;655684;-72
2021/12/18 03:24:57;;;;;;;26.47;8.23;;;1.60;99.90;;;;;;4339127;28;655358;-72
2021/12/18 03:27:46;;;;;;;24.73;7.70;;;1.60;99.90;;;;;;4329416;28;656267;-72
2021/12/18 03:30:34;;;;;;;24.83;8.60;;;1.60;99.90;;;;;;4339122;28;656308;-72
2021/12/18 03:33:22;;;;;;;23.90;8.17;;;1.60;99.90;;;;;;4343827;28;655467;-72
2021/12/18 03:36:10;;;;;;;22.77;8.27;;;1.60;99.90;;;;;;4361412;28;655709;-73
2021/12/18 03:38:58;;;;;;;29.87;8.00;;;1.60;99.90;;;;;;4335544;28;656356;-73
2021/12/18 03:41:46;;;;;;;21.73;7.87;;;1.70;99.90;;;;;;4343175;28;655599;-72
2021/12/18 03:44:35;;;;;;;18.73;7.77;;;1.70;99.90;;;;;;4344190;28;657645;-72
2021/12/18 03:47:23;;;;;;;23.70;7.90;;;1.70;99.90;;;;;;4342083;28;655959;-73
2021/12/18 03:50:11;;;;;;;22.50;8.33;;;1.70;99.90;;;;;;4346078;28;655433;-74
2021/12/18 03:52:58;;;;;;;24.03;9.13;;;1.60;99.90;;;;;;4365051;28;655433;-72
2021/12/18 03:55:46;;;;;;;20.10;7.83;;;1.60;99.90;;;;;;4342814;28;655190;-72
2021/12/18 03:58:34;;;;;;;22.60;7.37;;;1.60;99.90;;;;;;4364709;28;656352;-73
2021/12/18 04:01:23;;;;;;;27.17;8.00;;;1.60;99.90;;;;;;4347132;28;655450;-73
2021/12/18 04:04:11;;;;;;;20.80;8.38;;;1.60;99.90;;;;;;4376579;28;655485;-73
2021/12/18 04:06:59;;;;;;;20.23;8.23;;;1.60;99.90;;;;;;4398343;28;656500;-73
2021/12/18 04:09:48;;;;;;;29.10;8.47;;;1.60;99.90;;;;;;4360607;28;655562;-73
2021/12/18 04:12:36;;;;;;;27.57;9.27;;;1.60;99.90;;;;;;4361600;28;655609;-72
2021/12/18 04:15:24;;;;;;;22.53;8.27;;;1.60;99.90;;;;;;4380267;28;655804;-72
2021/12/18 04:18:13;;;;;;;24.85;9.57;;;1.60;99.90;;;;;;4361629;28;655402;-73
2021/12/18 04:21:01;;;;;;;23.05;8.90;;;1.60;99.90;;;;;;4361573;28;655556;-73
2021/12/18 04:23:48;;;;;;;22.13;7.40;;;1.60;99.90;;;;;;4383948;28;656703;-73
2021/12/18 04:26:36;;;;;;;17.60;7.47;;;1.60;99.90;;;;;;4374882;28;655774;-72
2021/12/18 04:29:23;;;;;;;19.17;7.27;;;1.60;99.90;;;;;;4398989;28;656151;-73
2021/12/18 04:32:11;;;;;;;18.93;8.30;;;1.60;99.90;;;;;;4379028;28;655264;-72
2021/12/18 04:35:00;;;;;;;21.83;7.38;;;1.60;99.90;;;;;;4398307;28;656247;-73
2021/12/18 04:37:48;;;;;;;17.88;6.50;;;1.50;99.90;;;;;;4378771;28;656097;-72
2021/12/18 04:40:35;;;;;;;21.17;6.93;;;1.60;99.90;;;;;;4388250;28;655620;-73
2021/12/18 04:43:23;;;;;;;18.10;6.57;;;1.50;99.90;;;;;;4401286;28;657723;-73
2021/12/18 04:46:11;;;;;;;18.30;6.90;;;1.50;99.90;;;;;;4382972;28;656243;-73
2021/12/18 04:48:58;;;;;;;16.43;5.57;;;1.50;99.90;;;;;;4417174;28;656481;-73
2021/12/18 04:51:48;;;;;;;15.47;6.17;;;1.40;99.90;;;;;;4394684;28;655801;-73
2021/12/18 04:54:35;;;;;;;18.63;6.70;;;1.40;99.90;;;;;;4395459;28;655364;-74
2021/12/18 04:57:23;;;;;;;13.60;5.50;;;1.40;99.90;;;;;;4413680;28;657177;-74
2021/12/18 05:00:14;;;;;;;16.90;6.23;;;1.40;99.90;;;;;;4394618;28;656464;-72
2021/12/18 05:03:05;;;;;;;14.27;6.07;;;1.40;99.90;;;;;;4353060;28;655346;-72
2021/12/18 05:05:53;;;;;;;12.67;6.03;;;1.30;99.90;;;;;;4391512;28;655293;-72
2021/12/18 05:08:43;;;;;;;15.63;7.03;;;1.30;99.90;;;;;;4394215;28;655609;-72
2021/12/18 05:11:31;;;;;;;17.97;6.43;;;1.30;99.90;;;;;;4403105;28;655762;-72
2021/12/18 05:14:19;;;;;;;27.27;7.40;;;1.30;99.90;;;;;;4417526;28;655946;-74
2021/12/18 05:17:06;;;;;;;23.57;7.33;;;1.30;99.90;;;;;;4391658;28;655546;-72
2021/12/18 05:19:54;;;;;;;15.20;7.20;;;1.30;99.90;;;;;;4413371;28;655610;-73
2021/12/18 05:22:42;;;;;;;19.17;7.20;;;1.30;99.90;;;;;;4395050;28;656174;-72
2021/12/18 05:25:32;;;;;;;18.13;6.63;;;1.30;99.90;;;;;;4413285;28;656274;-73
2021/12/18 05:28:19;;;;;;;20.33;6.60;;;1.30;99.90;;;;;;4391037;28;655243;-73
2021/12/18 05:31:09;;;;;;;24.03;8.10;;;1.30;99.90;;;;;;4390575;28;656170;-73
2021/12/18 05:34:00;;;;;;;22.63;6.83;;;1.40;99.90;;;;;;4395506;28;655543;-73
2021/12/18 05:37:13;;;;;;;24.30;7.57;;;1.30;99.90;;;;;;4391626;28;656909;-72
2021/12/18 05:40:01;;;;;;;21.67;7.87;;;1.30;99.90;;;;;;4381299;28;655630;-72
2021/12/18 05:42:50;;;;;;;16.60;7.40;;;1.30;99.90;;;;;;4416652;28;656610;-72
2021/12/18 05:45:38;;;;;;;30.93;7.70;;;1.20;99.90;;;;;;4391615;28;656208;-73
2021/12/18 05:48:26;;;;;;;20.17;8.30;;;1.20;99.90;;;;;;4395252;28;655759;-73
2021/12/18 05:51:13;;;;;;;19.87;7.73;;;1.20;99.90;;;;;;4417286;28;656738;-72
2021/12/18 05:54:01;;;;;;;21.20;8.83;;;1.20;99.90;;;;;;4394177;28;655853;-73
2021/12/18 05:56:51;;;;;;;22.00;8.43;;;1.20;99.90;;;;;;4413404;28;656819;-72
2021/12/18 05:59:40;;;;;;;18.40;8.17;;;1.20;99.90;;;;;;4384704;28;656169;-72
2021/12/18 06:02:28;;;;;;;20.88;8.73;;;1.20;99.90;;;;;;4374528;28;656355;-73
2021/12/18 06:05:16;;;;;;;13.47;7.10;;;1.20;99.90;;;;;;4380941;28;655511;-72
2021/12/18 06:08:09;;;;;;;25.47;9.57;;;1.20;99.90;;;;;;4402468;28;656612;-72
2021/12/18 06:11:04;;;;;;;27.70;9.33;;;1.20;99.90;;;;;;4358444;28;655449;-72
2021/12/18 06:13:52;;;;;;;25.33;8.90;;;1.20;99.90;;;;;;4381237;28;655517;-72
2021/12/18 06:16:41;;;;;;;24.73;8.27;;;1.10;99.90;;;;;;4414008;28;655698;-72
2021/12/18 06:19:29;;;;;;;26.77;9.00;;;1.10;99.90;;;;;;4393969;28;656243;-71
2021/12/18 06:22:17;;;;;;;25.35;9.30;;;1.20;99.90;;;;;;4397542;28;656470;-72
2021/12/18 06:25:05;;;;;;;22.53;9.70;;;1.10;99.90;;;;;;4415461;28;655682;-73
2021/12/18 06:27:53;;;;;;;18.50;8.57;;;1.20;99.90;;;;;;4398567;28;656977;-72
2021/12/18 06:30:41;;;;;;;25.15;9.35;;;1.20;99.90;;;;;;4401796;28;656115;-72
2021/12/18 06:33:30;;;;;;;18.73;9.07;;;1.20;99.90;;;;;;4419621;28;656000;-72
2021/12/18 06:36:18;;;;;;;23.77;10.07;;;1.20;99.90;;;;;;4397145;28;655899;-72
2021/12/18 06:39:05;;;;;;;26.73;10.10;;;1.10;99.90;;;;;;4398688;28;656752;-72
2021/12/18 06:41:53;;;;;;;24.00;9.20;;;1.10;99.90;;;;;;4414780;28;658691;-72
2021/12/18 06:44:41;;;;;;;21.93;9.30;;;1.10;99.90;;;;;;4385014;28;655263;-72
2021/12/18 06:47:28;;;;;;;21.00;9.03;;;1.10;99.90;;;;;;4418933;28;656619;-73
2021/12/18 06:50:17;;;;;;;25.43;9.43;;;1.20;99.90;;;;;;4395777;28;655375;-73
2021/12/18 06:53:06;;;;;;;24.47;9.27;;;1.10;99.90;;;;;;4402414;28;655270;-72
2021/12/18 06:55:53;;;;;;;24.63;9.90;;;1.20;99.90;;;;;;4418023;28;656622;-72
2021/12/18 06:59:30;;;;;;;20.90;9.50;;;1.10;99.90;;;;;;4385358;28;655419;-71
2021/12/18 07:02:18;;;;;;;28.30;10.47;;;1.10;99.90;;;;;;4370437;28;656315;-71
2021/12/18 07:05:06;;;;;;;19.73;10.20;;;1.00;99.90;;;;;;4396927;28;656650;-71
2021/12/18 07:07:56;;;;;;;24.70;9.87;;;1.00;99.90;;;;;;4414360;28;656660;-74
2021/12/18 07:10:44;;;;;;;26.67;10.63;;;1.00;99.90;;;;;;4381107;28;656805;-72
2021/12/18 07:13:32;;;;;;;23.43;9.37;;;1.00;99.90;;;;;;4395892;28;656914;-74
2021/12/18 07:16:19;;;;;;;25.77;10.43;;;1.00;99.90;;;;;;4415668;28;655614;-73
2021/12/18 07:19:07;;;;;;;24.97;10.80;;;1.10;99.90;;;;;;4395978;28;656870;-73
2021/12/18 07:21:55;;;;;;;23.52;10.48;;;1.10;99.90;;;;;;4414884;28;656428;-73
2021/12/18 07:24:44;;;;;;;26.00;9.77;;;1.10;99.90;;;;;;4392277;28;658213;-73
2021/12/18 07:27:31;;;;;;;19.33;7.57;;;1.20;99.90;;;;;;4396926;28;655968;-73
2021/12/18 07:30:19;;;;;;;21.23;8.97;;;1.20;99.90;;;;;;4414720;28;656299;-74
2021/12/18 07:33:11;;;;;;;19.47;8.00;;;1.20;99.90;;;;;;4380504;28;655458;-73
2021/12/18 07:35:59;;;;;;;20.77;8.83;;;1.20;99.90;;;;;;4376364;28;656959;-72
2021/12/18 07:38:46;;;;;;;23.67;8.77;;;1.20;99.90;;;;;;4379460;28;655394;-73
2021/12/18 07:41:36;;;;;;;23.63;8.00;;;1.20;99.90;;;;;;4409880;28;656204;-73
2021/12/18 07:44:23;;;;;;;24.23;8.70;;;1.20;99.90;;;;;;4393303;28;656118;-73
2021/12/18 07:47:11;;;;;;;19.40;7.90;;;1.20;99.90;;;;;;4396211;28;655326;-72
2021/12/18 07:50:07;;;;;;;15.43;6.87;;;1.30;99.90;;;;;;4402065;28;656217;-73
2021/12/18 07:52:55;;;;;;;18.83;7.03;;;1.20;99.90;;;;;;4375684;28;655434;-73
2021/12/18 07:55:43;;;;;;;20.27;7.70;;;1.30;99.90;;;;;;4379694;28;655474;-73
2021/12/18 07:58:32;;;;;;;22.35;7.68;;;1.30;99.90;;;;;;4382614;28;655654;-73
2021/12/18 08:01:20;;;;;;;19.50;7.33;;;1.20;99.90;;;;;;4397965;28;655550;-73
2021/12/18 08:04:08;;;;;;;18.30;6.90;;;1.20;99.90;;;;;;4375606;28;656951;-73
2021/12/18 08:06:56;;;;;;;18.63;7.30;;;1.20;99.90;;;;;;4398587;28;655376;-72
2021/12/18 08:09:43;;;;;;;20.17;7.33;;;1.20;99.90;;;;;;4418591;28;656987;-73
2021/12/18 08:12:31;;;;;;;22.43;7.73;;;1.20;99.90;;;;;;4395965;28;655791;-73
2021/12/18 08:15:20;;;;;;;21.47;8.13;;;1.20;99.90;;;;;;4414905;28;656037;-73
2021/12/18 08:18:08;;;;;;;15.13;6.70;;;1.20;99.90;;;;;;4396649;28;656761;-73
2021/12/18 08:20:55;;;;;;;14.37;6.70;;;1.20;99.90;;;;;;4406810;28;655445;-73
2021/12/18 08:23:43;;;;;;;17.33;6.63;;;1.30;99.90;;;;;;4419023;28;655360;-73
2021/12/18 08:26:31;;;;;;;20.43;7.63;;;1.40;99.90;;;;;;4395728;28;655581;-73
2021/12/18 08:29:18;;;;;;;17.40;6.93;;;1.50;99.90;;;;;;4414734;28;657224;-73
2021/12/18 08:32:08;;;;;;;22.43;6.70;;;1.50;99.90;;;;;;4396054;28;655177;-72
2021/12/18 08:34:56;;;;;;;17.77;6.35;;;1.50;5.40;;;;;;4396129;28;655450;-73
2021/12/18 08:37:43;;;;;;;23.63;7.00;;;1.60;1.00;;;;;;4419974;28;655503;-73
2021/12/18 08:40:31;;;;;;;18.03;6.77;;;1.60;1.00;;;;;;4396410;28;654576;-73
2021/12/18 08:43:19;;;;;;;15.43;6.20;;;1.60;99.90;;;;;;4418876;28;653997;-73
2021/12/18 08:46:07;;;;;;;15.00;6.00;;;1.60;1.00;;;;;;4391195;28;656260;-72
2021/12/18 08:48:56;;;;;;;16.63;6.60;;;1.60;1.00;;;;;;4401970;28;653811;-72
2021/12/18 08:51:44;;;;;;;17.30;6.70;;;1.60;1.00;;;;;;4374875;28;655787;-73
2021/12/18 08:54:32;;;;;;;16.17;6.27;;;1.60;99.90;;;;;;4376981;28;654345;-73
2021/12/18 08:57:19;;;;;;;16.80;6.20;;;1.60;99.90;;;;;;4396388;28;655381;-73
2021/12/18 09:00:09;;;;;;;24.60;6.87;;;1.60;99.90;;;;;;4390438;28;655787;-73
2021/12/18 09:02:57;;;;;;;13.30;5.73;;;1.70;99.90;;;;;;4395168;28;655483;-73
2021/12/18 09:05:47;;;;;;;21.40;7.73;;;1.70;99.90;;;;;;4413523;28;656109;-72
2021/12/18 09:08:34;;;;;;;19.20;7.37;;;1.70;99.90;;;;;;4391944;28;656057;-73
2021/12/18 09:11:22;;;;;;;25.03;8.07;;;1.60;99.90;;;;;;4392555;28;655358;-73
2021/12/18 09:14:09;;;;;;;25.63;9.00;;;1.60;99.90;;;;;;4414091;28;655237;-72
2021/12/18 09:16:57;;;;;;;21.07;8.13;;;1.60;99.90;;;;;;4391651;28;655768;-72
2021/12/18 09:19:45;;;;;;;21.10;7.30;;;1.70;99.90;;;;;;4414373;28;655364;-73
2021/12/18 09:22:34;;;;;;;23.40;8.17;;;1.70;99.90;;;;;;4378718;28;656534;-73
2021/12/18 09:25:22;;;;;;;19.43;7.57;;;1.70;99.90;;;;;;4378114;28;656006;-73
2021/12/18 09:28:09;;;;;;;19.33;8.77;;;1.80;99.90;;;;;;4401439;28;655699;-72
2021/12/18 09:30:57;;;;;;;21.47;8.80;;;1.80;99.90;;;;;;4378592;28;655263;-73
2021/12/18 09:33:44;;;;;;;23.87;10.80;;;1.80;99.90;;;;;;4400340;28;656067;-72
2021/12/18 09:36:32;;;;;;;24.30;9.30;;;1.80;99.90;;;;;;4372403;28;657066;-72
2021/12/18 09:39:21;;;;;;;21.57;9.93;;;1.80;99.90;;;;;;4399776;28;655626;-72
2021/12/18 09:42:09;;;;;;;25.20;10.50;;;1.70;99.90;;;;;;4387026;28;656201;-73
2021/12/18 09:44:57;;;;;;;21.65;9.43;;;1.70;99.90;;;;;;4379758;28;657270;-72
2021/12/18 09:47:45;;;;;;;24.33;7.87;;;1.70;99.90;;;;;;4420893;28;655909;-72
2021/12/18 09:50:35;;;;;;;25.27;9.03;;;1.70;99.90;;;;;;4390989;28;656033;-73
2021/12/18 09:53:23;;;;;;;25.23;9.40;;;1.70;99.90;;;;;;4394582;28;657405;-73
2021/12/18 09:56:12;;;;;;;25.87;8.00;;;1.80;99.90;;;;;;4404872;28;655700;-72
2021/12/18 09:59:00;;;;;;;19.53;7.90;;;1.80;99.90;;;;;;4413105;28;656001;-72
2021/12/18 10:01:48;;;;;;;21.57;8.63;;;1.80;99.90;;;;;;4394766;28;657117;-73
2021/12/18 10:04:37;;;;;;;19.50;7.63;;;1.70;99.90;;;;;;4393988;28;656002;-72
2021/12/18 10:07:25;;;;;;;21.77;7.53;;;1.70;99.90;;;;;;4413189;28;656098;-72
2021/12/18 10:10:13;;;;;;;24.80;8.70;;;1.70;99.90;;;;;;4391253;28;655673;-72
2021/12/18 10:13:06;;;;;;;19.38;7.63;;;1.70;99.90;;;;;;4394585;28;655356;-73
2021/12/18 10:16:10;;;;;;;14.70;6.87;;;1.70;99.90;;;;;;4388695;28;655434;-72
2021/12/18 10:18:58;;;;;;;19.43;7.67;;;1.70;99.90;;;;;;4367791;28;655906;-72
2021/12/18 10:21:47;;;;;;;25.83;8.23;;;1.70;99.90;;;;;;4394543;28;656308;-73
2021/12/18 10:24:37;;;;;;;23.03;9.13;;;1.70;99.90;;;;;;4402766;28;655921;-73
2021/12/18 10:27:26;;;;;;;21.50;8.23;;;1.80;99.90;;;;;;4422841;28;655876;-73
2021/12/18 10:30:19;;;;;;;19.73;7.90;;;1.80;99.90;;;;;;4390456;28;656046;-73
2021/12/18 10:33:09;;;;;;;28.97;8.77;;;1.80;99.90;;;;;;4367495;28;656406;-73
2021/12/18 10:35:58;;;;;;;21.33;7.57;;;1.90;99.90;;;;;;4388257;28;655553;-73
2021/12/18 10:38:48;;;;;;;24.83;9.17;;;1.90;99.90;;;;;;4392912;28;655456;-73
2021/12/18 10:41:36;;;;;;;26.67;9.33;;;1.90;99.90;;;;;;4377406;28;655593;-71
2021/12/18 10:44:24;;;;;;;21.30;9.13;;;1.90;99.90;;;;;;4395762;28;656435;-72
2021/12/18 10:47:13;;;;;;;24.60;9.13;;;1.90;99.90;;;;;;4374619;28;656046;-72
2021/12/18 10:50:01;;;;;;;26.13;9.63;;;1.90;99.90;;;;;;4380096;28;655446;-73
2021/12/18 10:52:57;;;;;;;23.40;8.87;;;1.90;99.90;;;;;;4403385;28;656453;-73
2021/12/18 10:55:46;;;;;;;22.17;9.73;;;2.00;99.90;;;;;;4376121;28;655292;-73
2021/12/18 10:58:35;;;;;;;29.50;10.70;;;2.00;99.90;;;;;;4376266;28;656855;-73
2021/12/18 11:01:23;;;;;;;27.20;11.05;;;2.00;99.90;;;;;;4375280;28;658783;-72
2021/12/18 11:04:12;;;;;;;31.47;11.53;;;2.00;99.90;;;;;;4389430;28;656747;-73
2021/12/18 11:07:00;;;;;;;27.43;10.50;;;2.00;99.90;;;;;;4397752;28;656153;-72
2021/12/18 11:10:11;;;;;;;30.67;11.57;;;2.10;99.90;;;;;;4377411;28;656768;-73
2021/12/18 11:16:02;;;;;;;26.87;12.50;;;2.20;99.90;;;;;;4355436;28;657583;-72
2021/12/18 11:18:50;;;;;;;34.03;12.47;;;2.20;99.90;;;;;;4418403;28;656727;-72
2021/12/18 11:21:40;;;;;;;30.73;13.43;;;2.20;99.90;;;;;;4395339;28;657289;-72
2021/12/18 11:24:30;;;;;;;32.33;12.83;;;2.20;99.90;;;;;;4392538;28;657464;-74
2021/12/18 11:27:19;;;;;;;34.90;13.53;;;2.20;99.90;;;;;;4391171;28;657158;-72
2021/12/18 11:30:08;;;;;;;35.83;14.43;;;2.20;99.90;;;;;;4395449;28;656856;-72
2021/12/18 11:32:56;;;;;;;23.98;10.38;;;2.30;99.90;;;;;;4395481;28;656640;-74
2021/12/18 11:35:44;;;;;;;22.60;6.87;;;2.30;99.90;;;;;;4414079;28;656996;-77
2021/12/18 11:38:34;;;;;;;35.07;13.47;;;2.30;99.90;;;;;;4396386;28;655509;-76
2021/12/18 11:41:21;;;;;;;31.17;13.67;;;2.30;99.90;;;;;;4391795;28;656330;-73
2021/12/18 11:44:26;;;;;;;33.73;14.60;;;2.30;99.90;;;;;;4414020;28;657130;-73
2021/12/18 11:47:28;;;;;;;37.97;15.20;;;2.30;99.90;;;;;;4391430;28;656741;-73
2021/12/18 11:50:24;;;;;;;35.33;14.63;;;2.40;99.90;;;;;;4371958;28;656885;-73
2021/12/18 11:53:13;;;;;;;30.08;12.45;;;2.40;99.90;;;;;;4368433;28;657495;-73
2021/12/18 11:56:03;;;;;;;28.08;13.52;;;2.40;99.90;;;;;;4381118;28;656831;-72
2021/12/18 11:58:51;;;;;;;36.10;14.73;;;2.30;99.90;;;;;;4403742;28;656623;-73
2021/12/18 12:01:43;;;;;;;41.60;18.97;;;2.30;99.90;;;;;;4413303;28;657962;-72
2021/12/18 12:04:58;;;;;;;51.03;19.20;;;2.30;99.90;;;;;;4369741;28;656722;-72
2021/12/18 12:07:46;;;;;;;42.00;18.40;;;2.30;99.90;;;;;;4373648;28;657112;-73
2021/12/18 12:10:47;;;;;;;46.20;18.00;;;2.20;99.90;;;;;;4416819;28;657686;-72
2021/12/18 12:13:57;;;;;;;32.50;11.93;;;2.20;99.90;;;;;;4390703;28;656458;-72
2021/12/18 12:17:06;;;;;;;37.37;16.87;;;2.20;99.90;;;;;;4391553;28;657259;-73
2021/12/18 12:19:59;;;;;;;37.97;15.83;;;2.30;99.90;;;;;;4392012;28;657163;-72
2021/12/18 12:22:56;;;;;;;37.67;15.98;;;2.20;99.90;;;;;;4368830;28;656848;-72
2021/12/18 12:25:46;;;;;;;45.13;17.13;;;2.30;99.90;;;;;;4391375;28;657134;-72
2021/12/18 12:28:34;;;;;;;39.67;14.23;;;2.30;99.90;;;;;;4390957;28;657084;-72
2021/12/18 12:31:23;;;;;;;35.13;14.57;;;2.30;99.90;;;;;;4389451;28;656543;-73
2021/12/18 12:34:23;;;;;;;36.95;14.43;;;2.30;99.90;;;;;;4377520;28;656852;-73
2021/12/18 12:37:34;;;;;;;26.30;11.93;;;2.30;99.90;;;;;;4354956;28;656775;-74
2021/12/18 12:40:33;;;;;;;35.50;13.53;;;2.30;99.90;;;;;;4377686;28;656578;-72
2021/12/18 12:43:24;;;;;;;33.93;14.50;;;2.20;99.90;;;;;;4350917;28;657384;-73
2021/12/18 12:46:16;;;;;;;29.90;11.03;;;2.30;99.90;;;;;;4377678;28;656385;-71
2021/12/18 12:49:10;;;;;;;32.53;13.77;;;2.20;99.90;;;;;;4377299;28;656641;-72
2021/12/18 12:52:10;;;;;;;33.90;13.33;;;2.20;99.90;;;;;;4373315;28;656641;-73
2021/12/18 12:55:15;;;;;;;32.90;13.70;;;2.20;99.90;;;;;;4372876;28;656364;-72
2021/12/18 12:58:03;;;;;;;32.27;14.10;;;2.20;99.90;;;;;;4350705;28;657149;-72
2021/12/18 13:00:55;;;;;;;33.35;15.27;;;2.20;99.90;;;;;;4380474;28;656841;-72
2021/12/18 13:03:47;;;;;;;35.77;15.13;;;2.20;99.90;;;;;;4373805;28;657259;-72
2021/12/18 13:06:36;;;;;;;34.97;14.03;;;2.20;99.90;;;;;;4389615;28;656990;-72
2021/12/18 13:09:23;;;;;;;40.10;15.27;;;2.20;99.90;;;;;;4389971;28;657877;-73
2021/12/18 13:12:11;;;;;;;41.67;15.33;;;2.20;99.90;;;;;;4380982;28;656340;-72
2021/12/18 13:14:59;;;;;;;38.97;15.03;;;2.20;99.90;;;;;;4411412;28;657786;-73
2021/12/18 13:17:47;;;;;;;32.87;13.07;;;2.20;99.90;;;;;;4392565;28;657596;-71
2021/12/18 13:20:42;;;;;;;30.20;12.83;;;2.20;99.90;;;;;;4412270;28;658691;-73
2021/12/18 13:23:46;;;;;;;33.10;14.33;;;2.20;99.90;;;;;;4389396;28;657749;-72
2021/12/18 13:26:34;;;;;;;32.77;12.97;;;2.20;99.90;;;;;;4388411;28;658227;-72
2021/12/18 13:29:24;;;;;;;36.35;15.25;;;2.20;99.90;;;;;;4383778;28;658098;-72
2021/12/18 13:32:12;;;;;;;32.77;15.30;;;2.20;99.90;;;;;;4388383;28;658722;-72
2021/12/18 13:35:00;;;;;;;32.20;13.60;;;2.20;99.90;;;;;;4411101;28;657903;-72
2021/12/18 13:37:56;;;;;;;41.83;16.53;;;2.10;99.90;;;;;;4388264;28;658463;-72
2021/12/18 13:40:47;;;;;;;34.17;13.27;;;2.10;99.90;;;;;;4388286;28;657981;-71
2021/12/18 13:43:35;;;;;;;47.38;16.50;;;2.10;99.90;;;;;;4379901;28;657729;-72
2021/12/18 13:46:22;;;;;;;43.10;16.60;;;2.00;99.90;;;;;;4388593;28;658513;-72
2021/12/18 13:49:10;;;;;;;43.40;16.27;;;2.00;99.90;;;;;;4410826;28;657775;-72
2021/12/18 13:52:02;;;;;;;35.05;16.13;;;2.00;99.90;;;;;;4392844;28;658230;-72
2021/12/18 13:54:49;;;;;;;42.73;17.17;;;2.10;99.90;;;;;;4388284;28;658167;-72
2021/12/18 13:57:38;;;;;;;44.43;17.57;;;2.10;99.90;;;;;;4391795;28;657873;-73
2021/12/18 14:00:26;;;;;;;36.93;16.80;;;2.10;99.90;;;;;;4391606;28;657768;-72
2021/12/18 14:03:19;;;;;;;47.58;18.42;;;2.10;99.90;;;;;;4413997;28;658623;-73
2021/12/18 14:06:15;;;;;;;32.00;13.57;;;2.10;99.90;;;;;;4366795;28;658296;-74
2021/12/18 14:09:05;;;;;;;39.53;16.17;;;2.10;99.90;;;;;;4364536;28;658341;-72
2021/12/18 14:11:56;;;;;;;47.23;18.97;;;2.20;99.90;;;;;;4375922;28;658376;-73
2021/12/18 14:14:46;;;;;;;42.33;16.93;;;2.10;99.90;;;;;;4374683;28;658613;-72
2021/12/18 14:17:35;;;;;;;45.20;18.33;;;2.10;99.90;;;;;;4368621;28;657506;-72
2021/12/18 14:20:23;;;;;;;37.90;14.27;;;2.10;99.90;;;;;;4375444;28;658225;-75
2021/12/18 14:23:11;;;;;;;45.17;19.90;;;2.10;99.90;;;;;;4379317;28;657347;-72
2021/12/18 14:26:16;;;;;;;47.10;19.47;;;2.10;99.90;;;;;;4401317;28;658382;-72
2021/12/18 14:29:09;;;;;;;41.90;18.63;;;2.10;99.90;;;;;;4389431;28;658333;-72
2021/12/18 14:31:59;;;;;;;45.20;18.40;;;2.10;99.90;;;;;;4369908;28;658141;-72
2021/12/18 14:34:47;;;;;;;47.13;20.90;;;2.10;99.90;;;;;;4391908;28;658551;-72
2021/12/18 14:37:48;;;;;;;49.90;20.83;;;2.10;99.90;;;;;;4413899;28;658438;-72
2021/12/18 14:40:36;;;;;;;48.40;19.67;;;2.10;99.90;;;;;;4368172;28;657978;-72
2021/12/18 14:43:25;;;;;;;48.23;22.20;;;2.10;99.90;;;;;;4413125;28;658970;-72
2021/12/18 14:46:19;;;;;;;52.80;22.13;;;2.10;99.90;;;;;;4395672;28;658410;-71
2021/12/18 14:49:12;;;;;;;48.67;21.13;;;2.10;99.90;;;;;;4391586;28;658188;-71
2021/12/18 14:52:03;;;;;;;51.23;20.80;;;2.10;99.90;;;;;;4390836;28;658085;-72
2021/12/18 14:54:51;;;;;;;48.47;21.30;;;2.00;99.90;;;;;;4376803;28;657862;-72
2021/12/18 14:57:39;;;;;;;53.40;21.33;;;2.10;99.90;;;;;;4413475;28;658079;-72
2021/12/18 15:00:28;;;;;;;56.13;21.70;;;2.10;99.90;;;;;;4395140;28;657399;-73
2021/12/18 15:03:20;;;;;;;52.97;18.03;;;2.10;99.90;;;;;;4397435;28;657979;-75
2021/12/18 15:06:11;;;;;;;45.80;18.43;;;2.00;99.90;;;;;;4394095;28;658597;-73